createdAt,value
2022-11-24T00:01:06.114Z,100215.72
2022-11-24T00:03:33.061Z,100210.78
2022-11-24T00:06:08.106Z,100212.13
2022-11-24T00:08:35.806Z,100222.91
2022-11-24T00:11:07.225Z,100219.78
2022-11-24T00:13:34.097Z,100224.25
2022-11-24T00:16:16.786Z,100225.34
2022-11-24T00:18:46.235Z,100231.53
2022-11-24T00:21:14.295Z,100225.59
2022-11-24T00:23:40.988Z,100236.63
2022-11-24T00:26:15.822Z,100249.94
2022-11-24T00:28:43.376Z,100251.25
2022-11-24T00:31:25.633Z,100249.69
2022-11-24T00:33:54.818Z,100246.19
2022-11-24T00:36:21.811Z,100250.91
2022-11-24T00:38:52.566Z,100255.25
2022-11-24T00:41:19.095Z,100254.53
2022-11-24T00:43:45.802Z,100255.59
2022-11-24T00:46:12.418Z,100260.34
2022-11-24T00:48:39.135Z,100259.97
2022-11-24T00:51:08.294Z,100252.09
2022-11-24T00:53:35.106Z,100259.47
2022-11-24T00:56:04.021Z,100256.94
2022-11-24T00:58:31.610Z,100259.13
2022-11-24T01:01:08.723Z,100269.78
2022-11-24T01:03:35.594Z,100271.47
2022-11-24T01:06:12.358Z,100272.19
2022-11-24T01:08:40.924Z,100270.75
2022-11-24T01:11:08.376Z,100276.06
2022-11-24T01:13:34.930Z,100280.88
2022-11-24T01:16:01.551Z,100288.00
2022-11-24T01:18:28.165Z,100291.66
2022-11-24T01:20:54.780Z,100289.13
2022-11-24T01:23:21.312Z,100289.13
2022-11-24T01:25:47.862Z,100299.66
2022-11-24T01:28:14.710Z,100297.84
2022-11-24T01:30:41.321Z,100294.44
2022-11-24T01:33:07.901Z,100296.72
2022-11-24T01:35:34.667Z,100295.41
2022-11-24T01:38:01.182Z,100292.00
2022-11-24T01:40:27.722Z,100297.06
2022-11-24T01:42:54.362Z,100295.63
2022-11-24T01:45:30.107Z,100305.75
2022-11-24T01:47:57.395Z,100310.13
2022-11-24T01:50:24.250Z,100313.97
2022-11-24T01:52:54.199Z,100317.81
2022-11-24T01:55:25.662Z,100321.56
2022-11-24T01:58:01.510Z,100325.41
2022-11-24T02:00:28.573Z,100332.78
2022-11-24T02:02:55.440Z,100316.22
2022-11-24T02:05:28.581Z,100304.22
2022-11-24T02:07:58.882Z,100318.03
2022-11-24T02:10:25.532Z,100325.47
2022-11-24T02:12:55.998Z,100324.00
2022-11-24T02:15:23.288Z,100337.56
2022-11-24T02:17:49.852Z,100333.81
2022-11-24T02:20:17.735Z,100340.63
2022-11-24T02:22:53.732Z,100338.56
2022-11-24T02:25:48.152Z,100333.63
2022-11-24T02:28:18.655Z,100329.78
2022-11-24T02:30:45.726Z,100335.94
2022-11-24T02:33:13.406Z,100337.84
2022-11-24T02:35:40.440Z,100337.25
2022-11-24T02:38:07.116Z,100340.03
2022-11-24T02:40:33.775Z,100345.34
2022-11-24T02:43:12.482Z,100352.72
2022-11-24T02:45:39.256Z,100357.41
2022-11-24T02:48:06.143Z,100349.03
2022-11-24T02:50:32.668Z,100366.69
2022-11-24T02:52:59.238Z,100360.75
2022-11-24T02:55:25.927Z,100366.28
2022-11-24T02:57:52.484Z,100378.22
2022-11-24T03:00:19.380Z,100374.78
2022-11-24T03:02:46.145Z,100377.88
2022-11-24T03:05:13.183Z,100370.00
2022-11-24T03:07:39.830Z,100368.06
2022-11-24T03:10:07.175Z,100368.31
2022-11-24T03:12:33.774Z,100370.22
2022-11-24T03:15:00.842Z,100372.78
2022-11-24T03:17:27.450Z,100374.25
2022-11-24T03:19:53.989Z,100382.53
2022-11-24T03:22:20.577Z,100387.75
2022-11-24T03:24:47.130Z,100388.59
2022-11-24T03:27:14.568Z,100383.19
2022-11-24T03:29:41.151Z,100392.13
2022-11-24T03:32:07.725Z,100393.91
2022-11-24T03:34:34.526Z,100390.50
2022-11-24T03:37:01.241Z,100387.25
2022-11-24T03:39:27.881Z,100378.72
2022-11-24T03:41:54.478Z,100386.94
2022-11-24T03:44:21.441Z,100395.84
2022-11-24T03:46:48.122Z,100401.53
2022-11-24T03:49:14.739Z,100402.75
2022-11-24T03:51:41.301Z,100404.47
2022-11-24T03:54:08.077Z,100407.63
2022-11-24T03:56:34.638Z,100405.31
2022-11-24T03:59:01.206Z,100402.03
2022-11-24T04:01:27.817Z,100407.47
2022-11-24T04:03:54.478Z,100406.84
2022-11-24T04:06:21.052Z,100410.44
2022-11-24T04:08:47.623Z,100428.84
2022-11-24T04:11:34.202Z,100414.69
2022-11-24T04:14:00.789Z,100418.09
2022-11-24T04:16:27.509Z,100426.38
2022-11-24T04:18:54.121Z,100423.59
2022-11-24T04:21:21.072Z,100428.16
2022-11-24T04:23:47.637Z,100431.69
2022-11-24T04:26:14.263Z,100433.16
2022-11-24T04:28:40.801Z,100427.13
2022-11-24T04:31:07.403Z,100422.34
2022-11-24T04:33:34.019Z,100432.75
2022-11-24T04:36:00.568Z,100431.88
2022-11-24T04:39:24.932Z,100436.13
2022-11-24T04:41:13.617Z,100436.88
2022-11-24T04:43:41.157Z,100433.69
2022-11-24T04:46:10.435Z,100416.16
2022-11-24T04:48:37.189Z,100442.03
2022-11-24T04:51:06.911Z,100445.84
2022-11-24T04:53:33.609Z,100440.53
2022-11-24T04:56:03.971Z,100452.19
2022-11-24T04:58:30.508Z,100452.47
2022-11-24T05:00:57.058Z,100450.75
2022-11-24T05:03:23.963Z,100448.53
2022-11-24T05:05:50.511Z,100460.91
2022-11-24T05:08:17.118Z,100463.69
2022-11-24T05:10:43.718Z,100466.88
2022-11-24T05:13:11.978Z,100466.38
2022-11-24T05:15:40.636Z,100469.66
2022-11-24T05:18:10.687Z,100474.50
2022-11-24T05:20:38.633Z,100481.84
2022-11-24T05:23:07.451Z,100486.63
2022-11-24T05:25:36.437Z,100495.03
2022-11-24T05:28:05.654Z,100497.47
2022-11-24T05:30:32.122Z,100495.88
2022-11-24T05:32:58.832Z,100509.59
2022-11-24T05:35:25.468Z,100520.66
2022-11-24T05:37:52.090Z,100523.72
2022-11-24T05:40:18.724Z,100525.84
2022-11-24T05:42:48.016Z,100527.66
2022-11-24T05:45:18.736Z,100527.84
2022-11-24T05:47:46.126Z,100537.53
2022-11-24T05:50:14.713Z,100547.09
2022-11-24T05:52:41.345Z,100569.00
2022-11-24T05:55:10.000Z,100571.66
2022-11-24T05:57:36.580Z,100580.78
2022-11-24T06:00:07.392Z,100589.81
2022-11-24T06:02:34.015Z,100589.47
2022-11-24T06:05:00.645Z,100582.09
2022-11-24T06:07:27.451Z,100597.75
2022-11-24T06:09:54.015Z,100601.56
2022-11-24T06:12:20.700Z,100603.16
2022-11-24T06:14:47.294Z,100595.31
2022-11-24T06:17:13.983Z,100604.03
2022-11-24T06:19:42.245Z,100612.63
2022-11-24T06:22:09.066Z,100622.38
2022-11-24T06:24:37.088Z,100618.34
2022-11-24T06:27:03.930Z,100635.78
2022-11-24T06:29:30.634Z,100634.81
2022-11-24T06:31:57.290Z,100650.44
2022-11-24T06:34:23.996Z,100641.72
2022-11-24T06:36:50.531Z,100646.09
2022-11-24T06:39:17.085Z,100653.84
2022-11-24T06:41:43.605Z,100651.09
2022-11-24T06:44:10.357Z,100642.06
2022-11-24T06:46:37.583Z,100657.53
2022-11-24T06:49:04.234Z,100666.41
2022-11-24T06:51:42.593Z,100657.19
2022-11-24T06:54:10.690Z,100660.69
2022-11-24T06:56:37.294Z,100650.03
2022-11-24T06:59:03.908Z,100648.13
2022-11-24T07:01:30.648Z,100657.28
2022-11-24T07:03:57.649Z,100652.38
2022-11-24T07:06:25.862Z,100651.44
2022-11-24T07:08:53.181Z,100658.88
2022-11-24T07:11:24.338Z,100665.22
2022-11-24T07:13:55.160Z,100673.09
2022-11-24T07:16:26.083Z,100685.78
2022-11-24T07:18:54.018Z,100689.19
2022-11-24T07:21:23.406Z,100699.94
2022-11-24T07:23:51.777Z,100700.88
2022-11-24T07:26:18.968Z,100698.47
2022-11-24T07:28:45.672Z,100703.06
2022-11-24T07:31:18.995Z,100704.81
2022-11-24T07:33:50.143Z,100701.47
2022-11-24T07:36:17.218Z,100701.91
2022-11-24T07:38:44.061Z,100706.16
2022-11-24T07:41:12.532Z,100715.28
2022-11-24T07:43:39.514Z,100714.97
2022-11-24T07:46:08.049Z,100722.59
2022-11-24T07:48:34.810Z,100731.59
2022-11-24T07:51:02.870Z,100741.75
2022-11-24T07:53:30.356Z,100733.34
2022-11-24T07:56:00.338Z,100730.00
2022-11-24T07:58:32.590Z,100733.94
2022-11-24T08:01:00.716Z,100733.59
2022-11-24T08:03:27.914Z,100732.19
2022-11-24T08:08:46.673Z,100737.00
2022-11-24T08:11:16.246Z,100748.38
2022-11-24T08:13:43.586Z,100759.84
2022-11-24T08:16:12.720Z,100755.06
2022-11-24T08:18:39.633Z,100767.50
2022-11-24T08:21:07.417Z,100763.63
2022-11-24T08:23:34.350Z,100771.06
2022-11-24T08:26:05.705Z,100771.63
2022-11-24T08:28:32.846Z,100771.59
2022-11-24T08:31:10.533Z,100780.09
2022-11-24T08:33:37.366Z,100770.34
2022-11-24T08:36:06.254Z,100772.09
2022-11-24T08:38:32.758Z,100778.38
2022-11-24T08:41:04.245Z,100802.75
2022-11-24T08:43:31.349Z,100805.50
2022-11-24T08:46:02.282Z,100804.38
2022-11-24T08:48:29.790Z,100801.69
2022-11-24T08:50:57.577Z,100796.19
2022-11-24T08:53:24.813Z,100792.13
2022-11-24T08:55:51.365Z,100793.84
2022-11-24T08:58:17.948Z,100783.69
2022-11-24T09:00:44.523Z,100801.63
2022-11-24T09:03:11.936Z,100792.44
2022-11-24T09:05:54.476Z,100784.31
2022-11-24T09:08:21.035Z,100793.88
2022-11-24T09:10:47.794Z,100800.66
2022-11-24T09:13:14.450Z,100801.66
2022-11-24T09:15:41.198Z,100806.38
2022-11-24T09:18:07.810Z,100811.44
2022-11-24T09:20:34.386Z,100819.41
2022-11-24T09:23:00.891Z,100831.81
2022-11-24T09:25:27.447Z,100847.03
2022-11-24T09:27:54.797Z,100845.28
2022-11-24T09:30:21.434Z,100841.50
2022-11-24T09:32:48.090Z,100824.41
2022-11-24T09:35:14.718Z,100838.75
2022-11-24T09:37:43.394Z,100837.53
2022-11-24T09:40:14.207Z,100831.16
2022-11-24T09:42:59.421Z,100817.53
2022-11-24T09:46:04.445Z,100804.53
2022-11-24T09:48:36.388Z,100811.94
2022-11-24T09:51:04.559Z,100807.91
2022-11-24T09:53:49.282Z,100816.63
2022-11-24T09:56:20.908Z,100805.25
2022-11-24T09:58:59.483Z,100809.13
2022-11-24T10:01:32.250Z,100805.28
2022-11-24T10:04:05.538Z,100794.72
2022-11-24T10:06:46.430Z,100794.59
2022-11-24T10:09:25.441Z,100793.28
2022-11-24T10:11:58.818Z,100800.97
2022-11-24T10:14:55.350Z,100799.66
2022-11-24T10:17:48.978Z,100808.13
2022-11-24T10:20:22.372Z,100801.59
2022-11-24T10:23:20.407Z,100795.38
2022-11-24T10:25:54.433Z,100812.16
2022-11-24T10:28:21.007Z,100822.91
2022-11-24T10:30:49.826Z,100824.13
2022-11-24T10:33:18.602Z,100821.50
2022-11-24T10:35:51.594Z,100816.03
2022-11-24T10:38:40.530Z,100821.53
2022-11-24T10:41:36.718Z,100815.56
2022-11-24T10:44:03.275Z,100819.38
2022-11-24T10:46:32.551Z,100813.44
2022-11-24T10:49:05.372Z,100818.94
2022-11-24T10:51:50.538Z,100821.44
2022-11-24T10:54:20.099Z,100827.09
2022-11-24T10:56:50.118Z,100822.81
2022-11-24T10:59:37.241Z,100819.84
2022-11-24T11:02:35.901Z,100814.66
2022-11-24T11:05:22.275Z,100822.88
2022-11-24T11:07:48.915Z,100813.00
2022-11-24T11:10:22.043Z,100820.72
2022-11-24T11:12:48.719Z,100818.75
2022-11-24T11:15:29.967Z,100809.69
2022-11-24T11:18:04.165Z,100808.56
2022-11-24T11:20:33.523Z,100807.91
2022-11-24T11:23:41.854Z,100799.56
2022-11-24T11:26:27.682Z,100795.56
2022-11-24T11:34:55.333Z,100796.53
2022-11-24T11:37:26.354Z,100803.88
2022-11-24T11:39:55.298Z,100803.78
2022-11-24T11:43:00.784Z,100815.22
2022-11-24T11:45:31.934Z,100818.91
2022-11-24T11:48:01.453Z,100819.44
2022-11-24T11:51:06.539Z,100818.38
2022-11-24T11:53:38.485Z,100818.97
2022-11-24T11:56:04.985Z,100816.53
2022-11-24T11:58:37.484Z,100818.84
2022-11-24T12:01:24.335Z,100821.16
2022-11-24T12:04:09.703Z,100827.66
2022-11-24T12:06:42.203Z,100819.50
2022-11-24T12:09:21.450Z,100818.38
2022-11-24T12:12:04.632Z,100808.59
2022-11-24T12:14:57.363Z,100810.16
2022-11-24T12:17:40.312Z,100806.72
2022-11-24T12:20:57.593Z,100806.84
2022-11-24T12:24:09.434Z,100809.00
2022-11-24T12:26:49.487Z,100798.63
2022-11-24T12:29:51.958Z,100803.75
2022-11-24T12:35:53.734Z,100802.72
2022-11-24T12:38:56.288Z,100804.25
2022-11-24T12:41:45.488Z,100816.44
2022-11-24T12:44:57.748Z,100807.94
2022-11-24T12:47:54.303Z,100812.47
2022-11-24T12:50:26.530Z,100814.41
2022-11-24T12:53:06.754Z,100817.38
2022-11-24T12:55:34.108Z,100822.50
2022-11-24T12:58:11.409Z,100819.72
2022-11-24T13:00:49.930Z,100823.28
2022-11-24T13:03:35.823Z,100830.25
2022-11-24T13:06:23.813Z,100833.41
2022-11-24T13:08:50.491Z,100827.34
2022-11-24T13:11:22.827Z,100824.59
2022-11-24T13:14:15.704Z,100840.16
2022-11-24T13:17:13.398Z,100825.78
2022-11-24T13:19:38.088Z,100823.06
2022-11-24T13:22:07.985Z,100840.00
2022-11-24T13:24:39.826Z,100847.78
2022-11-24T13:27:15.422Z,100842.53
2022-11-24T13:29:44.000Z,100847.44
2022-11-24T13:32:14.496Z,100838.47
2022-11-24T13:34:55.734Z,100829.19
2022-11-24T13:37:31.459Z,100833.06
2022-11-24T13:40:20.146Z,100829.00
2022-11-24T13:43:03.607Z,100829.31
2022-11-24T13:46:03.348Z,100817.47
2022-11-24T13:48:33.614Z,100819.81
2022-11-24T13:51:02.262Z,100815.97
2022-11-24T13:53:42.754Z,100819.00
2022-11-24T13:56:29.060Z,100825.88
2022-11-24T13:59:14.504Z,100834.69
2022-11-24T14:01:42.512Z,100826.75
2022-11-24T14:04:31.575Z,100828.47
2022-11-24T14:07:11.610Z,100832.84
2022-11-24T14:09:58.952Z,100829.22
2022-11-24T14:12:33.820Z,100824.34
2022-11-24T14:15:27.307Z,100822.97
2022-11-24T14:17:53.830Z,100819.75
2022-11-24T14:20:25.864Z,100814.34
2022-11-24T14:22:57.374Z,100820.22
2022-11-24T14:25:32.878Z,100821.72
2022-11-24T14:28:04.572Z,100820.69
2022-11-24T14:30:32.023Z,100822.47
2022-11-24T14:33:04.734Z,100820.09
2022-11-24T14:35:38.915Z,100820.25
2022-11-24T14:38:06.931Z,100814.81
2022-11-24T14:40:49.949Z,100821.16
2022-11-24T14:43:40.789Z,100816.09
2022-11-24T14:46:18.095Z,100821.75
2022-11-24T14:48:53.341Z,100822.53
2022-11-24T14:51:44.865Z,100832.13
2022-11-24T14:54:22.470Z,100829.53
2022-11-24T14:57:25.664Z,100828.94
2022-11-24T15:00:51.398Z,100837.97
2022-11-24T15:03:26.151Z,100834.81
2022-11-24T15:06:02.108Z,100845.06
2022-11-24T15:08:45.980Z,100850.56
2022-11-24T15:11:30.805Z,100855.38
2022-11-24T15:15:02.039Z,100853.09
2022-11-24T15:17:33.102Z,100855.13
2022-11-24T15:20:25.658Z,100860.97
2022-11-24T15:23:48.620Z,100856.94
2022-11-24T15:26:45.409Z,100869.19
2022-11-24T15:29:20.623Z,100868.13
2022-11-24T15:31:52.380Z,100862.38
2022-11-24T15:34:19.936Z,100867.47
2022-11-24T15:36:46.754Z,100873.19
2022-11-24T15:39:13.444Z,100888.69
2022-11-24T15:41:42.504Z,100886.31
2022-11-24T15:44:35.575Z,100885.22
2022-11-24T15:47:06.156Z,100890.91
2022-11-24T15:49:41.289Z,100881.88
2022-11-24T15:52:10.459Z,100881.03
2022-11-24T15:54:37.303Z,100893.94
2022-11-24T15:57:04.417Z,100887.97
2022-11-24T15:59:34.092Z,100887.84
2022-11-24T16:02:04.348Z,100889.78
2022-11-24T16:04:41.560Z,100896.00
2022-11-24T16:07:12.822Z,100903.91
2022-11-24T16:09:40.867Z,100899.41
2022-11-24T16:12:09.485Z,100897.41
2022-11-24T16:14:36.491Z,100897.97
2022-11-24T16:17:03.722Z,100903.63
2022-11-24T16:19:30.302Z,100895.69
2022-11-24T16:21:56.969Z,100899.06
2022-11-24T16:24:23.608Z,100897.06
2022-11-24T16:26:50.169Z,100908.22
2022-11-24T16:29:16.838Z,100901.31
2022-11-24T16:31:44.480Z,100904.53
2022-11-24T16:34:11.048Z,100901.94
2022-11-24T16:36:37.570Z,100899.88
2022-11-24T16:39:04.214Z,100900.63
2022-11-24T16:41:30.745Z,100900.25
2022-11-24T16:43:57.356Z,100902.03
2022-11-24T16:46:25.368Z,100902.81
2022-11-24T16:48:54.977Z,100891.81
2022-11-24T16:51:22.965Z,100892.28
2022-11-24T16:54:00.417Z,100901.19
2022-11-24T16:56:28.179Z,100902.53
2022-11-24T16:58:55.166Z,100911.59
2022-11-24T17:01:23.567Z,100906.75
2022-11-24T17:03:50.202Z,100914.31
2022-11-24T17:06:16.878Z,100927.28
2022-11-24T17:08:45.204Z,100927.53
2022-11-24T17:11:17.205Z,100923.75
2022-11-24T17:13:45.481Z,100925.84
2022-11-24T17:16:14.561Z,100936.09
2022-11-24T17:18:41.561Z,100946.09
2022-11-24T17:21:12.734Z,100963.91
2022-11-24T17:23:39.401Z,100970.88
2022-11-24T17:26:08.714Z,100963.72
2022-11-24T17:28:36.128Z,100985.63
2022-11-24T17:31:15.517Z,100985.78
2022-11-24T17:33:42.074Z,100983.94
2022-11-24T17:36:08.980Z,100978.00
2022-11-24T17:38:36.145Z,100987.13
2022-11-24T17:41:02.968Z,100984.72
2022-11-24T17:43:29.546Z,100985.44
2022-11-24T17:45:58.139Z,100986.66
2022-11-24T17:48:25.231Z,100982.88
2022-11-24T17:51:09.752Z,100987.28
2022-11-24T17:53:37.362Z,100998.34
2022-11-24T17:56:04.359Z,100988.13
2022-11-24T17:58:32.471Z,100990.28
2022-11-24T18:00:59.621Z,100984.94
2022-11-24T18:03:31.632Z,100983.84
2022-11-24T18:06:05.333Z,100985.19
2022-11-24T18:08:39.919Z,100979.78
2022-11-24T18:11:08.429Z,100991.47
2022-11-24T18:13:55.869Z,100991.69
2022-11-24T18:16:22.114Z,100989.63
2022-11-24T18:18:50.378Z,100988.28
2022-11-24T18:21:18.169Z,101004.06
2022-11-24T18:23:45.116Z,101015.50
2022-11-24T18:26:14.912Z,101015.28
2022-11-24T18:28:43.479Z,101022.56
2022-11-24T18:31:15.474Z,101024.72
2022-11-24T18:33:43.571Z,101023.84
2022-11-24T18:36:13.807Z,101025.78
2022-11-24T18:38:40.405Z,101023.38
2022-11-24T18:41:07.067Z,101020.31
2022-11-24T18:43:36.406Z,101024.06
2022-11-24T18:46:07.699Z,101013.72
2022-11-24T18:48:34.737Z,101018.63
2022-11-24T18:51:01.566Z,101019.69
2022-11-24T18:53:29.331Z,101026.63
2022-11-24T18:56:03.149Z,101024.78
2022-11-24T18:58:31.354Z,101035.59
2022-11-24T19:01:09.922Z,101041.06
2022-11-24T19:03:42.382Z,101036.78
2022-11-24T19:06:16.370Z,101045.28
2022-11-24T19:08:44.958Z,101055.34
2022-11-24T19:11:42.319Z,101045.22
2022-11-24T19:14:14.661Z,101051.66
2022-11-24T19:16:41.344Z,101060.75
2022-11-24T19:19:08.897Z,101063.53
2022-11-24T19:21:37.866Z,101068.97
2022-11-24T19:24:05.969Z,101070.28
2022-11-24T19:26:35.072Z,101060.66
2022-11-24T19:29:03.113Z,101056.50
2022-11-24T19:31:29.833Z,101062.94
2022-11-24T19:33:58.414Z,101065.22
2022-11-24T19:36:26.141Z,101057.06
2022-11-24T19:38:55.951Z,101054.13
2022-11-24T19:41:24.653Z,101066.41
2022-11-24T19:43:53.542Z,101052.88
2022-11-24T19:46:21.901Z,101066.09
2022-11-24T19:48:54.184Z,101064.78
2022-11-24T19:51:23.238Z,101061.28
2022-11-24T19:53:49.822Z,101060.97
2022-11-24T19:56:19.161Z,101071.53
2022-11-24T19:58:46.633Z,101068.88
2022-11-24T20:01:22.263Z,101084.91
2022-11-24T20:04:13.557Z,101078.56
2022-11-24T20:06:42.741Z,101081.25
2022-11-24T20:09:10.193Z,101091.06
2022-11-24T20:11:38.033Z,101075.41
2022-11-24T20:14:05.861Z,101082.44
2022-11-24T20:16:34.414Z,101084.34
2022-11-24T20:19:11.260Z,101085.09
2022-11-24T20:21:38.725Z,101088.94
2022-11-24T20:24:11.743Z,101085.34
2022-11-24T20:26:44.838Z,101089.94
2022-11-24T20:29:13.432Z,101088.53
2022-11-24T20:31:45.534Z,101098.56
2022-11-24T20:34:12.725Z,101104.97
2022-11-24T20:36:41.927Z,101111.91
2022-11-24T20:39:11.954Z,101102.09
2022-11-24T20:41:40.069Z,101105.41
2022-11-24T20:44:08.667Z,101113.41
2022-11-24T20:46:38.309Z,101103.91
2022-11-24T20:49:06.644Z,101110.00
2022-11-24T20:51:36.637Z,101102.22
2022-11-24T20:54:07.914Z,101099.00
2022-11-24T20:56:38.136Z,101096.66
2022-11-24T20:59:04.734Z,101094.53
2022-11-24T21:01:38.354Z,101083.41
2022-11-24T21:04:08.461Z,101092.78
2022-11-24T21:06:35.225Z,101091.63
2022-11-24T21:09:03.758Z,101088.50
2022-11-24T21:11:31.681Z,101088.50
2022-11-24T21:13:58.992Z,101101.75
2022-11-24T21:16:31.165Z,101117.44
2022-11-24T21:19:00.391Z,101119.78
2022-11-24T21:21:28.237Z,101116.25
2022-11-24T21:23:54.769Z,101124.38
2022-11-24T21:26:21.558Z,101120.44
2022-11-24T21:28:48.190Z,101129.28
2022-11-24T21:31:17.747Z,101126.84
2022-11-24T21:33:46.663Z,101127.06
2022-11-24T21:36:14.792Z,101124.38
2022-11-24T21:38:42.686Z,101125.00
2022-11-24T21:41:11.565Z,101130.78
2022-11-24T21:43:38.697Z,101132.72
2022-11-24T21:46:10.818Z,101131.34
2022-11-24T21:48:38.950Z,101130.47
2022-11-24T21:51:07.856Z,101139.56
2022-11-24T21:53:40.490Z,101133.50
2022-11-24T21:56:13.781Z,101132.75
2022-11-24T21:58:48.522Z,101148.53
2022-11-24T22:01:17.117Z,101137.97
2022-11-24T22:03:44.479Z,101134.66
2022-11-24T22:06:11.791Z,101109.03
2022-11-24T22:08:38.743Z,101130.16
2022-11-24T22:11:12.369Z,101133.81
2022-11-24T22:13:39.599Z,101132.06
2022-11-24T22:16:12.072Z,101138.94
2022-11-24T22:18:41.129Z,101133.16
2022-11-24T22:21:11.227Z,101136.34
2022-11-24T22:23:37.854Z,101143.41
2022-11-24T22:26:16.463Z,101148.53
2022-11-24T22:28:43.976Z,101147.78
2022-11-24T22:31:16.533Z,101156.84
2022-11-24T22:33:46.428Z,101144.25
2022-11-24T22:36:14.621Z,101139.56
2022-11-24T22:38:42.581Z,101131.44
2022-11-24T22:41:15.011Z,101137.09
2022-11-24T22:43:43.196Z,101148.41
2022-11-24T22:46:15.404Z,101140.19
2022-11-24T22:48:42.737Z,101132.59
2022-11-24T22:51:14.505Z,101131.00
2022-11-24T22:53:41.896Z,101127.25
2022-11-24T22:56:10.962Z,101137.84
2022-11-24T22:58:39.204Z,101145.94
2022-11-24T23:01:06.381Z,101153.63
2022-11-24T23:03:36.249Z,101166.03
2022-11-24T23:06:04.540Z,101166.88
2022-11-24T23:08:33.892Z,101173.06
2022-11-24T23:11:07.825Z,101163.97
2022-11-24T23:13:34.744Z,101153.53
2022-11-24T23:16:03.461Z,101147.03
2022-11-24T23:18:31.038Z,101125.69
2022-11-24T23:21:07.644Z,101130.59
2022-11-24T23:23:34.882Z,101137.63
2022-11-24T23:26:03.249Z,101143.81
2022-11-24T23:28:30.345Z,101145.50
2022-11-24T23:31:18.580Z,101133.34
2022-11-24T23:33:45.812Z,101125.25
2022-11-24T23:36:14.829Z,101124.59
2022-11-24T23:38:42.478Z,101129.31
2022-11-24T23:41:11.705Z,101130.28
2022-11-24T23:43:40.793Z,101136.44
2022-11-24T23:46:09.131Z,101137.53
2022-11-24T23:48:36.462Z,101131.22
2022-11-24T23:51:05.274Z,101136.56
2022-11-24T23:53:32.945Z,101129.72
2022-11-24T23:55:59.843Z,101131.19
2022-11-24T23:58:26.480Z,101132.25
